Bluffs, Illinois
Current Conditions -  °F | °C
As of 8:35 PM on Sunday 23 Nov 2014 (Local Time) from KPPQ Reporting Station
Overcast Overcast  
Wind Chill: 53°   Ceiling: 200
Heat Index: 53°   Visibility: 1.7mi
Dew Point: 51°   Wind: 6mph
Humidity: 95%   Direction: 200°SSW
Pressure: 29.25"   Gusts: NA
Location:  39.75°N, 90.54°W
Report Text: KPPQ 240235Z AUTO 20005KT 1 3/4SM OVC002 12/11 A2925 RMK AO2 T01150107 PWINO
Loading
Personal Weather Stations






























Interactive Weather Map New forecast layout! Learn more

10-Day Weather Forecast

Advertisements
Track Severe Weather on mobile